Time;durP1;ratioP1;P1;durP2;ratioP2;P2;SDS_P1;SDS_P2;PMS_P1;PMS_P2;Temp;Humidity;BMP_temperature;BMP_pressure;BME280_temperature;BME280_humidity;BME280_pressure;Samples;Min_cycle;Max_cycle;Signal;HPM_P1;HPM_P2
2023/11/29 00:00:31;;;;;;;7.70;6.17;;;-1.30;80.80;;;-2.44;87.38;97075.38;5085021;28;20834;-69
2023/11/29 00:02:58;;;;;;;6.33;5.17;;;-1.30;80.60;;;-2.48;86.77;97069.56;5088731;28;20451;-70
2023/11/29 00:05:25;;;;;;;7.30;5.23;;;-1.40;79.70;;;-2.53;86.25;97065.72;5086949;28;20447;-68
2023/11/29 00:07:52;;;;;;;7.93;6.00;;;-1.40;79.50;;;-2.58;86.24;97061.75;5085711;28;20456;-68
2023/11/29 00:10:22;;;;;;;6.43;5.00;;;-1.40;79.00;;;-2.58;86.43;97064.38;5089985;28;20539;-69
2023/11/29 00:12:49;;;;;;;11.03;6.57;;;-1.40;79.20;;;-2.65;88.22;97063.38;5085709;28;20452;-69
2023/11/29 00:15:17;;;;;;;6.63;5.60;;;-1.40;79.60;;;-2.69;86.63;97066.47;5088658;28;20535;-69
2023/11/29 00:17:44;;;;;;;5.77;4.73;;;-1.50;79.20;;;-2.76;87.08;97058.31;5086856;28;20471;-68
2023/11/29 00:20:12;;;;;;;6.87;4.53;;;-1.50;79.10;;;-2.69;85.84;97058.53;5088721;28;20472;-69
2023/11/29 00:22:39;;;;;;;6.10;5.27;;;-1.50;78.80;;;-2.64;87.06;97057.09;5087416;28;20823;-68
2023/11/29 00:25:10;;;;;;;9.53;6.50;;;-1.50;79.10;;;-2.56;87.45;97051.81;5088472;28;20441;-69
2023/11/29 00:27:38;;;;;;;6.30;5.00;;;-1.50;79.50;;;-2.72;86.33;97057.00;5085518;28;20471;-69
2023/11/29 00:30:08;;;;;;;6.37;5.77;;;-1.50;78.80;;;-2.75;86.78;97054.69;5084328;28;20501;-69
2023/11/29 00:32:35;;;;;;;5.57;4.57;;;-1.50;78.90;;;-2.80;86.55;97051.69;5082063;28;20444;-68
2023/11/29 00:35:02;;;;;;;6.20;5.17;;;-1.60;78.90;;;-2.87;87.18;97052.28;5095113;28;20490;-69
2023/11/29 00:37:29;;;;;;;7.03;5.50;;;-1.60;79.20;;;-2.82;87.72;97040.41;5085513;28;20520;-68
2023/11/29 00:39:56;;;;;;;7.83;5.50;;;-1.60;79.10;;;-2.83;87.07;97047.53;5089251;28;20452;-68
2023/11/29 00:42:24;;;;;;;7.67;5.60;;;-1.60;79.30;;;-2.73;87.46;97040.34;5085544;28;20452;-68
2023/11/29 00:44:53;;;;;;;5.77;4.63;;;-1.60;79.20;;;-2.82;86.72;97035.97;5087851;28;20517;-69
2023/11/29 00:47:20;;;;;;;6.90;4.60;;;-1.60;79.00;;;-2.81;86.55;97036.78;5073259;28;20933;-68
2023/11/29 00:49:47;;;;;;;8.20;5.60;;;-1.60;79.10;;;-2.76;86.77;97039.81;5077774;28;20500;-69
2023/11/29 00:52:14;;;;;;;6.30;4.83;;;-1.60;78.90;;;-2.79;86.24;97040.13;5073680;28;20526;-69
2023/11/29 00:54:42;;;;;;;7.30;5.20;;;-1.60;79.00;;;-2.82;86.87;97043.06;5073723;28;20459;-68
2023/11/29 00:57:09;;;;;;;8.90;5.00;;;-1.70;78.90;;;-2.80;86.47;97039.28;5080797;28;20608;-68
2023/11/29 00:59:36;;;;;;;7.87;4.33;;;-1.60;79.10;;;-2.94;86.58;97039.84;5085006;28;20515;-68
2023/11/29 01:02:05;;;;;;;6.30;4.50;;;-1.70;78.80;;;-2.94;86.84;97031.91;5091006;28;20452;-68
2023/11/29 01:04:32;;;;;;;7.57;5.50;;;-1.70;78.80;;;-2.93;87.07;97050.25;5089250;28;20476;-67
2023/11/29 01:06:59;;;;;;;4.67;3.67;;;-1.70;79.20;;;-2.86;86.75;97051.31;5072986;28;20460;-68
2023/11/29 01:09:26;;;;;;;5.13;3.93;;;-1.70;79.00;;;-2.91;85.99;97048.28;5073068;28;20868;-68
2023/11/29 01:11:54;;;;;;;6.67;5.10;;;-1.80;78.50;;;-3.04;86.85;97039.94;5071623;28;20794;-69
2023/11/29 01:14:22;;;;;;;6.40;4.67;;;-1.80;78.50;;;-3.10;86.23;97043.19;5080390;28;20453;-69
2023/11/29 01:16:49;;;;;;;4.77;4.10;;;-1.90;78.70;;;-3.07;86.72;97038.41;5081186;28;20455;-67
2023/11/29 01:19:23;;;;;;;10.17;4.00;;;-1.90;78.80;;;-3.11;86.88;97038.88;5085851;28;20511;-68
2023/11/29 01:21:50;;;;;;;4.90;4.23;;;-2.00;78.60;;;-3.21;86.53;97036.31;5086940;28;20455;-69
2023/11/29 01:24:17;;;;;;;7.00;4.30;;;-2.00;78.50;;;-3.47;86.36;97006.22;5085746;28;20845;-68
2023/11/29 01:26:44;;;;;;;4.30;3.90;;;-2.10;78.50;;;-3.33;86.71;97043.66;5086924;28;20472;-68
2023/11/29 01:29:12;;;;;;;6.23;4.90;;;-2.10;78.60;;;-3.40;87.70;97047.88;5083742;28;20462;-67
2023/11/29 01:31:39;;;;;;;6.90;5.00;;;-2.20;78.80;;;-3.43;87.90;97047.19;5087337;28;20452;-68
2023/11/29 01:34:06;;;;;;;5.30;4.70;;;-2.30;79.10;;;-3.42;87.61;97046.19;5079918;28;20448;-68
2023/11/29 01:36:35;;;;;;;6.77;4.37;;;-2.30;79.20;;;-3.55;88.41;97045.78;5081803;28;20533;-69
2023/11/29 01:39:02;;;;;;;5.63;4.53;;;-2.50;79.30;;;-3.74;89.33;97031.69;5084911;28;20493;-69
2023/11/29 01:41:30;;;;;;;5.43;4.40;;;-2.60;79.80;;;-3.78;89.68;97034.81;5086081;28;20793;-68
2023/11/29 01:43:57;;;;;;;5.85;5.13;;;-2.70;80.40;;;-3.84;90.40;97025.66;5071683;28;20501;-68
2023/11/29 01:46:24;;;;;;;6.50;4.70;;;-2.70;81.10;;;-3.79;90.76;97039.25;5079818;28;20898;-68
2023/11/29 01:48:52;;;;;;;6.30;5.10;;;-2.70;81.70;;;-3.67;90.81;97037.22;5089074;28;20447;-68
2023/11/29 01:51:19;;;;;;;5.57;4.40;;;-2.70;82.40;;;-3.64;90.93;97031.66;5097632;27;20449;-67
2023/11/29 01:53:50;;;;;;;7.33;4.60;;;-2.60;82.60;;;-3.51;90.60;97035.72;5079274;28;20496;-69
2023/11/29 01:56:19;;;;;;;6.07;5.00;;;-2.50;83.20;;;-3.79;89.51;96938.94;5084331;28;20448;-69
2023/11/29 01:58:47;;;;;;;6.87;5.10;;;-2.30;83.60;;;-3.18;89.57;97033.38;5072840;28;20473;-68
2023/11/29 02:01:15;;;;;;;7.00;4.67;;;-2.20;82.40;;;-3.25;89.25;97038.44;5083289;28;20452;-68
2023/11/29 02:03:42;;;;;;;6.27;5.60;;;-2.20;82.00;;;-3.04;88.72;97029.34;5085319;28;20452;-68
2023/11/29 02:06:10;;;;;;;6.20;4.60;;;-2.10;82.30;;;-2.99;88.52;97030.56;5092759;28;20457;-68
2023/11/29 02:08:37;;;;;;;5.50;5.00;;;-2.00;81.90;;;-2.90;87.23;97034.09;5092405;28;20449;-69
2023/11/29 02:11:07;;;;;;;7.97;5.70;;;-1.90;81.10;;;-2.95;87.31;97015.22;5077324;28;20452;-69
2023/11/29 02:13:34;;;;;;;8.13;5.50;;;-2.00;80.60;;;-2.90;87.39;97031.44;5078721;28;20942;-69
2023/11/29 02:16:02;;;;;;;6.43;5.00;;;-1.90;81.10;;;-2.94;87.94;97016.88;5080290;28;20511;-69
2023/11/29 02:18:29;;;;;;;5.97;5.37;;;-1.90;80.90;;;-2.86;88.31;97009.00;5081523;28;20761;-68
2023/11/29 02:20:56;;;;;;;9.83;6.07;;;-1.80;81.30;;;-2.90;87.34;97007.66;5077276;28;20439;-68
2023/11/29 02:23:28;;;;;;;6.37;5.50;;;-1.80;80.60;;;-3.30;87.72;96942.94;5082356;28;20538;-70
2023/11/29 02:25:57;;;;;;;6.23;5.43;;;-1.90;80.40;;;-3.39;87.31;96939.41;5089138;28;20449;-67
2023/11/29 02:28:24;;;;;;;8.93;5.63;;;-1.90;80.50;;;-3.02;87.83;97019.47;5076343;28;20463;-67
2023/11/29 02:30:51;;;;;;;7.23;6.10;;;-2.00;80.40;;;-2.91;88.71;97021.84;5077331;28;20455;-68
2023/11/29 02:33:18;;;;;;;8.30;5.40;;;-1.90;80.90;;;-2.72;88.93;97020.00;5083427;28;20958;-69
2023/11/29 02:35:46;;;;;;;6.77;5.50;;;-1.80;81.60;;;-2.75;87.54;97007.09;5081976;28;20444;-67
2023/11/29 02:38:13;;;;;;;7.80;5.47;;;-1.70;81.10;;;-2.85;87.23;97009.84;5080274;28;20475;-67
2023/11/29 02:40:40;;;;;;;6.17;5.20;;;-1.70;80.30;;;-2.79;86.54;97008.41;5081995;28;21130;-68
2023/11/29 02:43:09;;;;;;;6.43;5.30;;;-1.70;80.00;;;-3.19;86.86;96948.00;5081458;28;20851;-67
2023/11/29 02:45:36;;;;;;;8.03;5.50;;;-1.70;79.70;;;-2.88;86.95;97013.63;5079503;28;20447;-67
2023/11/29 02:48:03;;;;;;;7.17;5.67;;;-1.80;79.80;;;-2.80;86.53;97006.75;5098814;28;20982;-68
2023/11/29 02:50:30;;;;;;;7.97;5.83;;;-1.80;79.60;;;-2.82;87.20;97019.25;5080237;28;20452;-68
2023/11/29 02:52:57;;;;;;;7.07;5.73;;;-1.80;79.90;;;-2.80;87.67;97017.31;5081502;28;20456;-68
2023/11/29 02:55:25;;;;;;;7.90;5.70;;;-1.80;80.00;;;-2.91;87.69;97013.94;5080758;28;20461;-68
2023/11/29 02:57:52;;;;;;;7.13;5.40;;;-1.80;80.30;;;-2.83;88.54;97009.66;5095434;28;20467;-70
2023/11/29 03:00:21;;;;;;;7.53;5.77;;;-1.80;81.00;;;-2.76;88.46;97013.38;5075272;28;20516;-69
2023/11/29 03:02:48;;;;;;;9.37;6.30;;;-1.80;80.80;;;-3.15;87.35;96940.59;5079022;28;20455;-70
2023/11/29 03:05:14;;;;;;;6.83;5.20;;;-1.70;80.80;;;-2.94;87.09;97005.47;5077561;28;20470;-69
2023/11/29 03:07:41;;;;;;;7.13;5.57;;;-1.70;79.70;;;-2.84;85.98;97006.22;5076868;28;21430;-68
2023/11/29 03:10:09;;;;;;;6.60;5.93;;;-1.70;79.40;;;-3.02;87.71;96998.31;5075922;28;20455;-69
2023/11/29 03:12:36;;;;;;;9.60;6.50;;;-1.80;79.60;;;-3.08;87.49;97014.81;5076594;28;21007;-70
2023/11/29 03:15:05;;;;;;;7.13;5.80;;;-1.90;79.60;;;-3.00;87.86;97018.34;5077369;28;20456;-68
2023/11/29 03:17:33;;;;;;;7.00;6.20;;;-1.90;80.00;;;-3.18;88.11;97022.81;5078555;28;20456;-68
2023/11/29 03:20:01;;;;;;;9.10;6.60;;;-1.90;79.90;;;-3.35;88.67;97004.16;5082511;28;20976;-69
2023/11/29 03:22:28;;;;;;;9.30;6.60;;;-2.00;79.70;;;-3.34;88.84;97019.03;5070853;28;20453;-68
2023/11/29 03:24:55;;;;;;;8.60;6.30;;;-2.00;79.90;;;-3.28;88.97;97012.31;5073149;28;20469;-69
2023/11/29 03:27:22;;;;;;;9.30;6.40;;;-2.10;80.00;;;-3.36;89.35;97014.91;5083568;28;20453;-69
2023/11/29 03:29:49;;;;;;;8.67;6.20;;;-2.20;80.10;;;-3.53;89.85;97006.84;5074541;28;20456;-68
2023/11/29 03:32:17;;;;;;;10.77;6.63;;;-2.30;80.40;;;-3.78;91.03;97006.59;5102040;27;20790;-68
2023/11/29 03:34:45;;;;;;;8.00;6.40;;;-2.40;81.20;;;-3.75;91.43;97006.28;5085564;28;20448;-68
2023/11/29 03:37:12;;;;;;;9.57;6.17;;;-2.50;81.70;;;-3.77;91.38;97010.06;5089213;28;20536;-66
2023/11/29 03:39:40;;;;;;;9.17;7.23;;;-2.60;81.50;;;-3.81;91.76;97014.81;5081877;28;20467;-68
2023/11/29 03:42:08;;;;;;;8.73;5.80;;;-2.70;83.00;;;-3.85;91.67;97006.34;5083454;28;20855;-68
2023/11/29 03:44:36;;;;;;;8.30;6.20;;;-2.70;82.80;;;-3.90;92.12;97005.13;5076184;28;20464;-68
2023/11/29 03:47:04;;;;;;;8.43;6.13;;;-2.80;83.50;;;-4.00;92.54;96994.63;5086607;28;21191;-68
2023/11/29 03:49:31;;;;;;;12.70;7.03;;;-2.80;83.70;;;-4.00;92.94;96994.63;5086644;28;20515;-69
2023/11/29 03:51:59;;;;;;;10.20;6.80;;;-2.80;84.20;;;-3.97;92.52;96999.63;5086199;28;20456;-67
2023/11/29 03:54:27;;;;;;;9.20;6.67;;;-2.80;83.90;;;-3.91;92.45;96992.91;5092610;28;20993;-68
2023/11/29 03:56:54;;;;;;;11.23;7.73;;;-2.80;84.10;;;-3.88;92.12;96997.88;5088646;28;20457;-67
2023/11/29 03:59:21;;;;;;;10.70;6.80;;;-2.70;83.70;;;-3.87;92.72;96989.84;5087504;28;21146;-67
2023/11/29 04:01:49;;;;;;;12.63;8.20;;;-2.70;83.90;;;-3.74;92.54;96988.66;5087121;28;20450;-68
2023/11/29 04:04:16;;;;;;;10.67;7.40;;;-2.70;84.80;;;-3.79;92.65;96980.31;5088099;28;20540;-68
2023/11/29 04:06:43;;;;;;;10.43;7.90;;;-2.60;84.60;;;-3.76;92.70;96982.69;5086088;28;20451;-68
2023/11/29 04:09:11;;;;;;;11.63;7.88;;;-2.60;84.40;;;-3.81;92.35;96979.66;5091302;28;20523;-68
2023/11/29 04:11:42;;;;;;;12.60;8.97;;;-2.70;84.30;;;-3.91;92.93;96971.81;5087594;28;20190;-67
2023/11/29 04:14:09;;;;;;;13.77;8.00;;;-2.80;84.20;;;-4.21;93.43;96956.16;5105548;27;20810;-68
2023/11/29 04:16:36;;;;;;;11.93;7.60;;;-2.90;84.50;;;-4.09;93.56;96969.97;5094800;28;20990;-67
2023/11/29 04:19:03;;;;;;;11.30;8.30;;;-2.90;85.00;;;-4.21;93.69;96966.72;5087046;28;20471;-68
2023/11/29 04:21:35;;;;;;;13.83;9.30;;;-3.10;85.00;;;-4.23;94.11;96967.84;5090091;28;20463;-68
2023/11/29 04:24:02;;;;;;;14.60;8.50;;;-3.00;86.30;;;-4.19;93.75;96971.84;5078972;28;20444;-68
2023/11/29 04:26:34;;;;;;;12.57;7.67;;;-3.10;85.70;;;-4.18;93.68;96973.50;5083956;28;20805;-67
2023/11/29 04:29:03;;;;;;;13.27;7.83;;;-3.10;85.70;;;-4.25;94.05;96969.78;5080774;28;21150;-67
2023/11/29 04:31:32;;;;;;;11.43;7.80;;;-3.20;86.00;;;-4.36;94.28;96953.19;5087788;28;20487;-68
2023/11/29 04:34:00;;;;;;;13.47;8.67;;;-3.10;87.10;;;-4.34;95.58;96982.88;5083887;28;20468;-68
2023/11/29 04:36:27;;;;;;;15.30;9.53;;;-3.20;87.40;;;-4.33;95.79;96968.72;5085132;28;20452;-68
2023/11/29 04:38:55;;;;;;;17.03;9.07;;;-3.20;88.80;;;-4.39;96.08;96966.66;5093309;28;20476;-69
2023/11/29 04:41:23;;;;;;;11.73;7.53;;;-3.20;88.50;;;-4.50;95.81;96961.59;5087824;28;20490;-69
2023/11/29 04:43:52;;;;;;;16.57;9.47;;;-3.30;88.50;;;-4.58;96.19;96949.13;5086056;28;20455;-68
2023/11/29 04:46:20;;;;;;;12.67;8.87;;;-3.30;89.60;;;-4.55;96.74;96962.84;5081820;28;20577;-68
2023/11/29 04:48:47;;;;;;;13.60;8.53;;;-3.40;89.30;;;-4.64;96.81;96961.09;5086988;28;20506;-69
2023/11/29 04:51:15;;;;;;;14.00;9.10;;;-3.50;88.90;;;-4.56;96.91;96958.56;5100533;28;21150;-69
2023/11/29 04:53:42;;;;;;;15.57;9.80;;;-3.50;90.30;;;-5.04;96.40;96883.19;5102676;27;20467;-70
2023/11/29 04:56:10;;;;;;;16.27;9.93;;;-3.50;90.20;;;-4.51;96.93;96954.66;5084624;28;20461;-69
2023/11/29 04:58:39;;;;;;;15.82;9.82;;;-3.40;90.60;;;-4.50;96.13;96951.03;5089821;28;20250;-68
2023/11/29 05:01:10;;;;;;;18.13;9.70;;;-3.40;90.00;;;-4.57;96.00;96949.00;5086131;28;20190;-70
2023/11/29 05:03:38;;;;;;;18.10;10.10;;;-3.40;89.50;;;-4.53;95.64;96943.44;5086929;28;20455;-68
2023/11/29 05:06:06;;;;;;;18.50;9.83;;;-3.30;88.90;;;-4.51;95.66;96950.22;5089778;28;20464;-69
2023/11/29 05:08:33;;;;;;;15.30;9.80;;;-3.30;88.10;;;-4.43;95.35;96957.41;5084894;28;20940;-67
2023/11/29 05:11:01;;;;;;;13.80;9.47;;;-3.20;88.30;;;-4.41;94.89;96952.81;5084180;28;20448;-69
2023/11/29 05:13:28;;;;;;;15.00;9.60;;;-3.30;87.90;;;-4.39;95.00;96961.41;5088341;28;20509;-69
2023/11/29 05:15:55;;;;;;;14.50;9.10;;;-3.30;87.40;;;-4.40;95.28;96962.38;5085063;28;20879;-68
2023/11/29 05:18:24;;;;;;;15.27;9.77;;;-3.30;88.40;;;-5.14;95.70;96870.03;5081644;28;20552;-69
2023/11/29 05:20:52;;;;;;;16.60;10.67;;;-3.30;88.30;;;-4.49;95.98;96958.81;5088187;28;20928;-69
2023/11/29 05:23:19;;;;;;;15.00;9.50;;;-3.40;88.70;;;-4.50;96.28;96961.59;5086176;28;20809;-69
2023/11/29 05:25:46;;;;;;;18.00;9.67;;;-3.30;89.10;;;-4.47;95.68;96961.31;5093150;28;20446;-69
2023/11/29 05:28:13;;;;;;;15.93;10.07;;;-3.30;89.00;;;-4.61;95.10;96941.53;5082993;28;20501;-68
2023/11/29 05:30:41;;;;;;;18.47;11.60;;;-3.30;88.50;;;-4.46;95.52;96952.44;5085787;28;21278;-68
2023/11/29 05:33:08;;;;;;;16.90;10.67;;;-3.30;88.30;;;-4.44;95.63;96963.66;5086116;28;20464;-69
2023/11/29 05:35:37;;;;;;;17.20;10.93;;;-3.30;88.50;;;-4.38;95.70;96954.31;5083126;28;20485;-69
2023/11/29 05:38:04;;;;;;;16.40;10.93;;;-3.30;89.00;;;-4.35;96.22;96960.13;5087907;28;20452;-67
2023/11/29 05:40:32;;;;;;;14.50;8.40;;;-3.20;89.70;;;-4.10;96.05;96960.41;5087444;28;20474;-67
2023/11/29 05:42:59;;;;;;;19.23;10.17;;;-3.00;90.10;;;-3.96;95.51;96963.50;5085958;28;20455;-66
2023/11/29 05:45:26;;;;;;;14.53;10.20;;;-2.90;90.00;;;-3.89;95.52;96964.56;5083820;28;20473;-66
2023/11/29 05:47:53;;;;;;;16.93;10.70;;;-2.80;89.30;;;-3.79;95.39;96970.59;5082718;28;20532;-67
2023/11/29 05:50:23;;;;;;;18.20;10.70;;;-2.70;88.80;;;-3.75;94.60;96966.69;5083955;28;20448;-66
2023/11/29 05:52:51;;;;;;;16.20;10.65;;;-2.60;87.70;;;-3.67;94.53;96967.75;5078509;28;20451;-66
2023/11/29 05:55:19;;;;;;;16.80;10.37;;;-2.60;87.00;;;-3.59;94.45;96954.59;5079117;28;20256;-69
2023/11/29 05:57:46;;;;;;;17.70;9.10;;;-2.50;87.60;;;-3.62;93.90;96960.19;5081487;28;20455;-67
2023/11/29 06:00:14;;;;;;;13.07;8.93;;;-2.40;86.60;;;-3.58;93.29;96959.75;5077156;28;20828;-68
2023/11/29 06:02:42;;;;;;;17.93;10.33;;;-2.40;85.80;;;-3.68;93.49;96955.53;5085651;28;20528;-69
2023/11/29 06:05:10;;;;;;;14.33;10.10;;;-2.50;85.00;;;-3.61;92.72;96957.41;5084198;28;20463;-67
2023/11/29 06:07:38;;;;;;;14.97;9.83;;;-2.50;84.90;;;-3.67;92.53;96960.66;5082214;28;20571;-70
2023/11/29 06:10:08;;;;;;;18.03;10.40;;;-2.60;84.80;;;-3.93;93.39;96963.22;5079007;28;20456;-69
2023/11/29 06:12:36;;;;;;;16.50;10.47;;;-2.70;85.10;;;-3.80;93.47;96962.81;5084010;28;20518;-66
2023/11/29 06:15:05;;;;;;;16.93;10.37;;;-2.80;85.70;;;-3.92;93.75;96959.59;5079159;28;21133;-69
2023/11/29 06:17:35;;;;;;;22.30;10.17;;;-2.80;85.50;;;-3.92;93.38;96959.59;5075581;28;20481;-70
2023/11/29 06:20:04;;;;;;;16.33;11.00;;;-2.80;86.20;;;-4.09;93.64;96942.75;5080746;28;20476;-69
2023/11/29 06:22:32;;;;;;;11.93;8.37;;;-2.90;85.90;;;-4.05;94.03;96966.06;5087581;28;20541;-71
2023/11/29 06:24:59;;;;;;;16.60;10.63;;;-3.00;86.60;;;-3.96;94.14;96964.31;5084122;28;20562;-70
2023/11/29 06:27:29;;;;;;;16.00;10.37;;;-3.00;86.90;;;-3.89;94.10;96964.56;5076944;28;20463;-72
2023/11/29 06:29:57;;;;;;;14.60;10.57;;;-2.90;87.70;;;-4.05;94.71;96965.25;5081767;28;20439;-69
2023/11/29 06:32:24;;;;;;;16.13;11.00;;;-2.90;87.60;;;-3.89;94.97;96948.72;5078999;28;20452;-68
2023/11/29 06:34:52;;;;;;;16.10;10.03;;;-2.70;88.90;;;-3.38;98.26;96959.56;5081612;28;20479;-70
2023/11/29 06:37:20;;;;;;;20.10;10.63;;;-2.50;90.90;;;-3.37;96.03;96963.06;5083348;28;20471;-70
2023/11/29 06:39:48;;;;;;;17.33;11.13;;;-2.20;90.80;;;-3.36;94.58;96965.53;5090772;28;20865;-68
2023/11/29 06:42:16;;;;;;;18.57;10.97;;;-2.20;88.80;;;-3.28;93.67;96967.41;5077959;28;20474;-70
2023/11/29 06:44:44;;;;;;;16.43;10.53;;;-2.20;87.30;;;-3.28;93.79;96968.25;5094088;27;20440;-73
2023/11/29 06:47:12;;;;;;;17.80;11.63;;;-2.20;87.00;;;-3.34;93.45;96962.75;5079042;28;20579;-70
2023/11/29 06:49:39;;;;;;;15.80;10.80;;;-2.30;85.40;;;-3.37;93.27;96963.88;5081084;28;20527;-71
2023/11/29 06:52:08;;;;;;;16.87;11.37;;;-2.30;85.40;;;-3.84;92.85;96896.31;5083675;28;20582;-71
2023/11/29 06:54:36;;;;;;;17.30;11.03;;;-2.40;85.10;;;-3.42;92.72;96956.38;5077399;28;20547;-69
2023/11/29 06:57:03;;;;;;;16.33;10.45;;;-2.40;85.70;;;-3.56;93.37;96925.28;5076498;28;20520;-68
2023/11/29 06:59:31;;;;;;;18.83;10.87;;;-2.40;86.10;;;-3.52;93.40;96955.66;5086857;28;20660;-68
2023/11/29 07:02:01;;;;;;;16.27;10.73;;;-2.40;85.50;;;-3.84;93.39;96930.66;5084655;28;20452;-69
2023/11/29 07:04:28;;;;;;;18.90;11.90;;;-2.40;85.40;;;-3.65;93.81;96952.59;5089973;28;20767;-69
2023/11/29 07:06:56;;;;;;;18.17;13.30;;;-2.50;85.60;;;-3.59;93.50;96957.25;5077414;28;20467;-69
2023/11/29 07:09:23;;;;;;;18.77;11.20;;;-2.50;85.90;;;-3.55;93.71;96958.63;5087007;28;20453;-71
2023/11/29 07:11:52;;;;;;;16.00;11.10;;;-2.50;85.80;;;-3.52;93.19;96960.94;5079826;28;20466;-70
2023/11/29 07:14:20;;;;;;;15.47;11.30;;;-2.50;86.50;;;-3.62;93.44;96952.28;5084689;28;20461;-71
2023/11/29 07:16:46;;;;;;;15.82;11.18;;;-2.60;86.50;;;-3.57;94.74;96952.63;5082232;28;20449;-72
2023/11/29 07:19:15;;;;;;;21.40;11.53;;;-2.50;87.50;;;-3.44;94.38;96961.00;5092677;28;20185;-70
2023/11/29 07:21:42;;;;;;;18.17;11.20;;;-2.40;87.60;;;-3.38;93.89;96956.13;5069701;28;20879;-68
2023/11/29 07:24:10;;;;;;;16.07;11.00;;;-2.40;88.00;;;-3.28;92.86;96956.81;5088623;28;20451;-71
2023/11/29 07:26:37;;;;;;;17.90;12.40;;;-2.20;87.50;;;-3.19;92.33;96963.84;5087449;28;20927;-71
2023/11/29 07:29:05;;;;;;;17.27;11.90;;;-2.10;85.70;;;-3.03;91.96;96951.72;5093305;28;20959;-71
2023/11/29 07:31:33;;;;;;;19.67;12.70;;;-1.90;85.00;;;-2.81;90.40;96960.09;5073816;28;20879;-70
2023/11/29 07:34:00;;;;;;;18.70;11.00;;;-1.80;84.30;;;-2.79;90.35;96951.03;5077641;28;20847;-71
2023/11/29 07:36:29;;;;;;;22.30;13.50;;;-1.70;83.30;;;-2.74;90.46;96938.16;5086334;28;20461;-71
2023/11/29 07:38:56;;;;;;;19.50;11.83;;;-1.70;82.80;;;-2.77;89.68;96935.03;5084559;28;20448;-69
2023/11/29 07:41:23;;;;;;;17.53;11.30;;;-1.60;82.40;;;-2.53;88.90;96946.69;5093245;28;20467;-70
2023/11/29 07:43:50;;;;;;;17.37;12.10;;;-1.50;82.20;;;-2.48;88.63;96937.28;5093191;28;20462;-71
2023/11/29 07:46:17;;;;;;;18.73;11.60;;;-1.50;81.70;;;-2.44;87.93;96953.69;5101315;28;20531;-69
2023/11/29 07:48:44;;;;;;;15.80;11.37;;;-1.40;81.30;;;-2.36;87.76;96919.31;5088239;28;20550;-68
2023/11/29 07:51:11;;;;;;;15.33;10.40;;;-1.30;81.60;;;-2.08;87.70;96947.34;5087071;28;20450;-70
2023/11/29 07:53:40;;;;;;;16.37;10.77;;;-1.20;81.30;;;-2.42;86.75;96909.38;5086192;28;20459;-70
2023/11/29 07:56:09;;;;;;;17.30;10.57;;;-1.10;80.50;;;-2.09;87.84;96951.81;5085962;28;20464;-68
2023/11/29 07:58:36;;;;;;;19.23;12.07;;;-1.00;81.00;;;-1.96;86.60;96945.22;5094418;28;20462;-69
2023/11/29 08:01:04;;;;;;;15.00;12.10;;;-1.00;80.20;;;-2.04;86.56;96954.81;5081586;28;20500;-70
2023/11/29 08:03:31;;;;;;;15.80;9.97;;;-0.90;80.10;;;-1.94;86.51;96952.03;5086586;28;20448;-67
2023/11/29 08:05:58;;;;;;;15.43;10.03;;;-0.90;79.90;;;-1.97;86.47;96954.16;5086795;28;20529;-68
2023/11/29 08:08:26;;;;;;;15.73;10.87;;;-0.90;79.70;;;-1.86;85.45;96956.50;5083048;28;20453;-68
2023/11/29 08:10:54;;;;;;;19.70;12.10;;;-0.80;79.60;;;-1.51;85.59;96951.91;5085772;28;20452;-70
2023/11/29 08:13:23;;;;;;;14.90;10.63;;;-0.60;79.90;;;-1.81;84.54;96943.59;5088914;28;20494;-69
2023/11/29 08:15:50;;;;;;;14.23;9.70;;;-0.60;79.10;;;-1.97;85.59;96952.34;5079958;28;20471;-68
2023/11/29 08:18:17;;;;;;;15.43;11.40;;;-0.70;79.00;;;-1.65;84.41;96963.16;5090218;28;20542;-69
2023/11/29 08:20:45;;;;;;;17.53;9.13;;;-0.60;79.10;;;-1.81;85.20;96954.19;5095353;28;20219;-68
2023/11/29 08:23:12;;;;;;;14.00;10.13;;;-0.70;79.00;;;-1.73;85.39;96956.03;5090127;28;20465;-69
2023/11/29 08:25:39;;;;;;;17.00;10.80;;;-0.70;78.90;;;-1.67;84.75;96958.00;5090113;28;20472;-69
2023/11/29 08:28:11;;;;;;;20.20;11.50;;;-0.60;78.80;;;-1.60;84.53;96950.22;5087683;28;21191;-69
2023/11/29 08:30:38;;;;;;;16.67;10.30;;;-0.50;78.70;;;-1.50;84.08;96945.59;5083437;28;20457;-69
2023/11/29 08:33:05;;;;;;;16.33;11.10;;;-0.40;78.70;;;-1.19;83.36;96952.88;5088121;28;20470;-69
2023/11/29 08:35:32;;;;;;;14.63;9.57;;;-0.30;78.90;;;-1.10;82.40;96944.94;5084628;28;20463;-69
2023/11/29 08:37:59;;;;;;;15.73;11.00;;;-0.20;78.30;;;-1.19;83.13;96947.59;5085384;28;20454;-69
2023/11/29 08:40:27;;;;;;;15.00;10.63;;;-0.20;78.10;;;-1.15;82.85;96940.13;5086712;28;20475;-69
2023/11/29 08:42:54;;;;;;;15.13;10.40;;;-0.10;78.00;;;-1.22;83.29;96939.97;5088644;28;20461;-69
2023/11/29 08:45:22;;;;;;;15.30;10.97;;;-0.20;78.10;;;-1.38;83.59;96911.66;5093203;28;20502;-70
2023/11/29 08:47:50;;;;;;;16.53;10.67;;;-0.20;78.20;;;-1.08;83.05;96948.25;5079580;28;20801;-69
2023/11/29 08:50:17;;;;;;;17.37;10.53;;;-0.10;77.90;;;-1.08;83.76;96929.69;5094551;28;20461;-69
2023/11/29 08:52:44;;;;;;;15.53;9.73;;;0.00;78.50;;;-0.86;81.64;96936.13;5091362;28;20458;-71
2023/11/29 08:55:11;;;;;;;14.13;10.00;;;0.10;78.00;;;-1.00;81.85;96941.09;5085409;28;21032;-70
2023/11/29 08:57:40;;;;;;;14.57;9.57;;;0.10;77.70;;;-1.01;82.60;96946.56;5093856;28;20449;-69
2023/11/29 09:00:09;;;;;;;12.07;9.00;;;0.00;77.90;;;-0.92;82.12;96939.44;5083109;28;20463;-69
2023/11/29 09:02:38;;;;;;;14.07;10.30;;;0.10;78.10;;;-0.64;81.64;96931.91;5086180;28;20515;-68
2023/11/29 09:05:07;;;;;;;16.57;9.93;;;0.30;77.90;;;-0.62;81.50;96929.91;5085773;28;20456;-69
2023/11/29 09:07:36;;;;;;;14.30;10.20;;;0.30;77.80;;;-0.62;81.55;96924.59;5094200;28;20460;-69
2023/11/29 09:10:05;;;;;;;17.07;11.27;;;0.30;77.50;;;-0.46;81.63;96925.53;5090381;28;20453;-70
2023/11/29 09:12:32;;;;;;;18.00;10.63;;;0.40;77.60;;;-0.34;80.48;96915.34;5080688;28;20461;-70
2023/11/29 09:15:00;;;;;;;16.17;10.77;;;0.60;77.40;;;-0.37;80.84;96918.38;5101662;28;20473;-70
2023/11/29 09:17:27;;;;;;;19.10;11.30;;;0.60;77.30;;;-0.49;80.72;96925.88;5092375;28;20489;-71
2023/11/29 09:19:56;;;;;;;15.37;10.67;;;0.60;77.10;;;-0.41;80.63;96912.56;5090950;28;20913;-69
2023/11/29 09:22:23;;;;;;;21.57;11.20;;;0.60;77.10;;;-0.71;81.31;96909.69;5085308;28;20528;-68
2023/11/29 09:24:51;;;;;;;16.07;11.00;;;0.40;76.80;;;-0.59;81.55;96918.94;5082291;28;20474;-68
2023/11/29 09:27:18;;;;;;;12.53;9.77;;;0.40;77.20;;;-0.40;81.12;96911.56;5081715;28;20528;-70
2023/11/29 09:29:46;;;;;;;15.37;10.70;;;0.60;77.40;;;-0.53;80.07;96842.28;5083304;28;20958;-68
2023/11/29 09:32:13;;;;;;;14.40;9.97;;;0.70;77.00;;;-0.43;81.12;96898.66;5084794;28;21162;-68
2023/11/29 09:34:40;;;;;;;17.33;9.70;;;0.60;77.00;;;-0.38;80.95;96906.09;5078833;28;21321;-69
2023/11/29 09:37:09;;;;;;;15.03;9.57;;;0.60;76.90;;;-0.18;81.17;96898.53;5092708;28;20464;-69
2023/11/29 09:39:37;;;;;;;18.93;11.40;;;0.70;77.10;;;-0.07;80.16;96898.16;5084656;28;20452;-69
2023/11/29 09:42:05;;;;;;;15.63;10.67;;;0.80;77.20;;;-0.25;81.16;96898.41;5089056;28;20989;-69
2023/11/29 09:44:35;;;;;;;15.60;11.27;;;0.80;77.00;;;0.12;80.37;96888.06;5086482;28;20920;-69
2023/11/29 09:47:03;;;;;;;14.23;9.70;;;1.00;77.20;;;0.06;79.79;96896.72;5080696;28;20469;-69
2023/11/29 09:49:31;;;;;;;14.67;10.53;;;1.00;76.70;;;0.52;78.77;96895.88;5093708;28;20813;-69
2023/11/29 09:51:58;;;;;;;14.10;10.30;;;1.30;76.80;;;0.41;78.44;96889.97;5087506;28;20440;-69
2023/11/29 09:54:27;;;;;;;17.00;10.87;;;1.40;76.20;;;0.63;78.34;96884.00;5083499;28;20948;-70
2023/11/29 09:56:55;;;;;;;13.63;9.10;;;1.50;76.40;;;0.49;77.83;96890.94;5077972;28;20459;-70
2023/11/29 09:59:23;;;;;;;13.53;9.17;;;1.50;75.80;;;0.65;77.73;96885.47;5094788;28;20949;-70
2023/11/29 10:01:52;;;;;;;15.87;10.27;;;1.60;75.90;;;0.55;77.94;96884.91;5085675;28;20480;-68
2023/11/29 10:04:19;;;;;;;14.00;9.67;;;1.50;75.50;;;0.71;77.33;96875.97;5080843;28;20540;-68
2023/11/29 10:06:46;;;;;;;13.67;9.70;;;1.60;75.80;;;0.75;77.05;96866.59;5082806;28;20515;-70
2023/11/29 10:09:16;;;;;;;12.27;9.70;;;1.80;75.40;;;0.59;77.50;96866.75;5092516;28;20446;-68
2023/11/29 10:11:45;;;;;;;11.97;8.63;;;1.70;75.20;;;0.29;78.72;96856.84;5088881;28;20459;-70
2023/11/29 10:14:14;;;;;;;14.13;9.53;;;1.60;75.40;;;0.62;78.82;96864.56;5090944;28;20464;-70